Airport View

Enter AWOS ICAO identifier for current METAR.

ex. KFNL

KM25 192020Z AUTO 17006KT 10SM SCT048 34/23 A3001 RMK AO2 PWINO

19 Aug 2019 20:18

Frequency: 120.625

Phone: 270-247-2094

Other Area AWOS: KCEY - KPAH - KM30 - KPHT

TAF KPAH 191720Z 1918/2018 21004KT P6SM FEW040 FEW250 FM192300 VRB04KT P6SM SCT250 FM201700 23004KT P6SM BKN200